sensor_id;sensor_type;location;lat;lon;timestamp;P1;durP1;ratioP1;P2;durP2;ratioP2
51066;SDS011;37112;45.892;-123.962;2022-07-29T00:00:02;15.30;;;3.60;;
51066;SDS011;37112;45.892;-123.962;2022-07-29T00:02:36;9.90;;;3.20;;
51066;SDS011;37112;45.892;-123.962;2022-07-29T00:04:49;9.80;;;3.50;;
51066;SDS011;37112;45.892;-123.962;2022-07-29T00:07:02;12.20;;;2.50;;
51066;SDS011;37112;45.892;-123.962;2022-07-29T00:09:17;12.00;;;3.00;;
51066;SDS011;37112;45.892;-123.962;2022-07-29T00:11:30;11.20;;;2.30;;
51066;SDS011;37112;45.892;-123.962;2022-07-29T00:13:43;9.90;;;2.20;;
51066;SDS011;37112;45.892;-123.962;2022-07-29T00:15:56;16.20;;;3.50;;
51066;SDS011;37112;45.892;-123.962;2022-07-29T00:18:10;20.80;;;3.60;;
51066;SDS011;37112;45.892;-123.962;2022-07-29T00:20:23;24.60;;;3.50;;
51066;SDS011;37112;45.892;-123.962;2022-07-29T00:22:38;16.50;;;2.70;;
51066;SDS011;37112;45.892;-123.962;2022-07-29T00:24:51;21.20;;;2.70;;
51066;SDS011;37112;45.892;-123.962;2022-07-29T00:27:04;5.50;;;2.20;;
51066;SDS011;37112;45.892;-123.962;2022-07-29T00:29:18;19.10;;;3.20;;
51066;SDS011;37112;45.892;-123.962;2022-07-29T00:33:51;7.70;;;1.20;;
51066;SDS011;37112;45.892;-123.962;2022-07-29T00:36:04;12.30;;;2.80;;
51066;SDS011;37112;45.892;-123.962;2022-07-29T00:38:18;13.80;;;2.70;;
51066;SDS011;37112;45.892;-123.962;2022-07-29T00:40:31;19.70;;;5.00;;
51066;SDS011;37112;45.892;-123.962;2022-07-29T00:42:49;7.00;;;2.30;;
51066;SDS011;37112;45.892;-123.962;2022-07-29T00:45:02;9.20;;;2.70;;
51066;SDS011;37112;45.892;-123.962;2022-07-29T00:47:16;5.80;;;1.60;;
51066;SDS011;37112;45.892;-123.962;2022-07-29T00:49:29;9.10;;;3.50;;
51066;SDS011;37112;45.892;-123.962;2022-07-29T00:51:42;8.00;;;2.40;;
51066;SDS011;37112;45.892;-123.962;2022-07-29T00:53:55;10.30;;;3.00;;
51066;SDS011;37112;45.892;-123.962;2022-07-29T00:56:08;14.60;;;4.60;;
51066;SDS011;37112;45.892;-123.962;2022-07-29T00:58:21;12.20;;;3.80;;
51066;SDS011;37112;45.892;-123.962;2022-07-29T01:00:36;17.90;;;3.90;;
51066;SDS011;37112;45.892;-123.962;2022-07-29T01:02:51;18.80;;;6.10;;
51066;SDS011;37112;45.892;-123.962;2022-07-29T01:05:05;13.30;;;4.70;;
51066;SDS011;37112;45.892;-123.962;2022-07-29T01:07:20;10.20;;;3.00;;
51066;SDS011;37112;45.892;-123.962;2022-07-29T01:09:33;16.10;;;4.50;;
51066;SDS011;37112;45.892;-123.962;2022-07-29T01:11:52;17.90;;;4.60;;
51066;SDS011;37112;45.892;-123.962;2022-07-29T01:14:07;13.20;;;4.40;;
51066;SDS011;37112;45.892;-123.962;2022-07-29T01:16:28;11.00;;;3.30;;
51066;SDS011;37112;45.892;-123.962;2022-07-29T01:18:46;10.90;;;2.80;;
51066;SDS011;37112;45.892;-123.962;2022-07-29T01:23:45;6.20;;;2.60;;
51066;SDS011;37112;45.892;-123.962;2022-07-29T01:26:18;7.20;;;2.10;;
51066;SDS011;37112;45.892;-123.962;2022-07-29T01:29:00;15.30;;;2.30;;
51066;SDS011;37112;45.892;-123.962;2022-07-29T01:31:19;8.40;;;2.30;;
51066;SDS011;37112;45.892;-123.962;2022-07-29T01:33:38;15.20;;;3.30;;
51066;SDS011;37112;45.892;-123.962;2022-07-29T01:35:58;14.40;;;3.50;;
51066;SDS011;37112;45.892;-123.962;2022-07-29T01:38:16;19.40;;;4.00;;
51066;SDS011;37112;45.892;-123.962;2022-07-29T01:40:34;11.70;;;3.20;;
51066;SDS011;37112;45.892;-123.962;2022-07-29T01:42:54;10.20;;;3.20;;
51066;SDS011;37112;45.892;-123.962;2022-07-29T01:45:10;10.70;;;3.10;;
51066;SDS011;37112;45.892;-123.962;2022-07-29T01:47:29;10.50;;;3.00;;
51066;SDS011;37112;45.892;-123.962;2022-07-29T01:49:47;13.00;;;3.10;;
51066;SDS011;37112;45.892;-123.962;2022-07-29T01:52:05;8.20;;;2.10;;
51066;SDS011;37112;45.892;-123.962;2022-07-29T01:54:26;2.10;;;1.10;;
51066;SDS011;37112;45.892;-123.962;2022-07-29T01:56:45;3.30;;;1.00;;
51066;SDS011;37112;45.892;-123.962;2022-07-29T01:59:01;1.80;;;1.10;;
51066;SDS011;37112;45.892;-123.962;2022-07-29T02:01:16;1.50;;;0.80;;
51066;SDS011;37112;45.892;-123.962;2022-07-29T02:03:31;3.10;;;1.10;;
51066;SDS011;37112;45.892;-123.962;2022-07-29T02:05:46;1.70;;;0.80;;
51066;SDS011;37112;45.892;-123.962;2022-07-29T02:08:02;1.20;;;0.80;;
51066;SDS011;37112;45.892;-123.962;2022-07-29T02:10:18;1.10;;;0.70;;
51066;SDS011;37112;45.892;-123.962;2022-07-29T02:12:35;1.20;;;0.70;;
51066;SDS011;37112;45.892;-123.962;2022-07-29T02:14:56;1.00;;;0.60;;
51066;SDS011;37112;45.892;-123.962;2022-07-29T02:17:17;1.20;;;0.80;;
51066;SDS011;37112;45.892;-123.962;2022-07-29T02:19:36;2.30;;;0.80;;
51066;SDS011;37112;45.892;-123.962;2022-07-29T02:21:53;1.80;;;0.60;;
51066;SDS011;37112;45.892;-123.962;2022-07-29T02:24:09;0.90;;;0.70;;
51066;SDS011;37112;45.892;-123.962;2022-07-29T02:26:24;1.90;;;0.90;;
51066;SDS011;37112;45.892;-123.962;2022-07-29T02:28:39;2.00;;;1.00;;
51066;SDS011;37112;45.892;-123.962;2022-07-29T02:30:53;1.50;;;1.00;;
51066;SDS011;37112;45.892;-123.962;2022-07-29T02:33:12;1.40;;;0.90;;
51066;SDS011;37112;45.892;-123.962;2022-07-29T02:35:27;2.90;;;1.10;;
51066;SDS011;37112;45.892;-123.962;2022-07-29T02:37:41;1.00;;;0.70;;
51066;SDS011;37112;45.892;-123.962;2022-07-29T02:40:15;2.50;;;1.30;;
51066;SDS011;37112;45.892;-123.962;2022-07-29T02:42:29;1.70;;;1.20;;
51066;SDS011;37112;45.892;-123.962;2022-07-29T02:44:46;4.00;;;1.30;;
51066;SDS011;37112;45.892;-123.962;2022-07-29T02:47:02;2.40;;;1.30;;
51066;SDS011;37112;45.892;-123.962;2022-07-29T02:49:23;1.50;;;1.10;;
51066;SDS011;37112;45.892;-123.962;2022-07-29T02:51:45;1.30;;;0.90;;
51066;SDS011;37112;45.892;-123.962;2022-07-29T02:53:59;3.10;;;0.90;;
51066;SDS011;37112;45.892;-123.962;2022-07-29T02:56:16;2.20;;;1.20;;
51066;SDS011;37112;45.892;-123.962;2022-07-29T02:58:34;1.30;;;0.90;;
51066;SDS011;37112;45.892;-123.962;2022-07-29T03:00:52;1.40;;;0.80;;
51066;SDS011;37112;45.892;-123.962;2022-07-29T03:03:07;1.30;;;0.90;;
51066;SDS011;37112;45.892;-123.962;2022-07-29T03:05:23;2.60;;;1.10;;
51066;SDS011;37112;45.892;-123.962;2022-07-29T03:07:36;1.20;;;0.70;;
51066;SDS011;37112;45.892;-123.962;2022-07-29T03:09:50;0.60;;;0.60;;
51066;SDS011;37112;45.892;-123.962;2022-07-29T03:12:05;1.10;;;0.60;;
51066;SDS011;37112;45.892;-123.962;2022-07-29T03:14:20;1.30;;;0.60;;
51066;SDS011;37112;45.892;-123.962;2022-07-29T03:16:34;1.60;;;0.70;;
51066;SDS011;37112;45.892;-123.962;2022-07-29T03:18:47;3.10;;;1.30;;
51066;SDS011;37112;45.892;-123.962;2022-07-29T03:21:02;1.50;;;0.90;;
51066;SDS011;37112;45.892;-123.962;2022-07-29T03:23:15;1.40;;;0.90;;
51066;SDS011;37112;45.892;-123.962;2022-07-29T03:25:40;1.00;;;0.90;;
51066;SDS011;37112;45.892;-123.962;2022-07-29T03:27:54;1.00;;;0.80;;
51066;SDS011;37112;45.892;-123.962;2022-07-29T03:30:08;2.70;;;1.10;;
51066;SDS011;37112;45.892;-123.962;2022-07-29T03:32:27;2.70;;;1.40;;
51066;SDS011;37112;45.892;-123.962;2022-07-29T03:34:41;1.50;;;0.90;;
51066;SDS011;37112;45.892;-123.962;2022-07-29T03:36:54;2.80;;;1.20;;
51066;SDS011;37112;45.892;-123.962;2022-07-29T03:39:07;1.70;;;1.20;;
51066;SDS011;37112;45.892;-123.962;2022-07-29T03:41:22;2.20;;;1.10;;
51066;SDS011;37112;45.892;-123.962;2022-07-29T03:43:37;1.90;;;1.10;;
51066;SDS011;37112;45.892;-123.962;2022-07-29T03:45:55;1.20;;;0.90;;
51066;SDS011;37112;45.892;-123.962;2022-07-29T03:48:10;3.00;;;1.50;;
51066;SDS011;37112;45.892;-123.962;2022-07-29T03:50:26;4.20;;;1.20;;
51066;SDS011;37112;45.892;-123.962;2022-07-29T03:52:40;1.80;;;1.30;;
51066;SDS011;37112;45.892;-123.962;2022-07-29T03:54:54;1.60;;;0.90;;
51066;SDS011;37112;45.892;-123.962;2022-07-29T03:57:07;1.30;;;0.90;;
51066;SDS011;37112;45.892;-123.962;2022-07-29T03:59:23;1.70;;;1.40;;
51066;SDS011;37112;45.892;-123.962;2022-07-29T04:01:37;1.20;;;1.00;;
51066;SDS011;37112;45.892;-123.962;2022-07-29T04:03:51;1.50;;;1.30;;
51066;SDS011;37112;45.892;-123.962;2022-07-29T04:06:06;1.60;;;1.20;;
51066;SDS011;37112;45.892;-123.962;2022-07-29T04:08:19;1.70;;;1.30;;
51066;SDS011;37112;45.892;-123.962;2022-07-29T04:10:32;1.30;;;1.20;;
51066;SDS011;37112;45.892;-123.962;2022-07-29T04:12:45;2.40;;;1.10;;
51066;SDS011;37112;45.892;-123.962;2022-07-29T04:14:58;2.60;;;1.10;;
51066;SDS011;37112;45.892;-123.962;2022-07-29T04:17:11;1.90;;;1.20;;
51066;SDS011;37112;45.892;-123.962;2022-07-29T04:19:24;1.60;;;1.20;;
51066;SDS011;37112;45.892;-123.962;2022-07-29T04:21:39;1.90;;;1.10;;
51066;SDS011;37112;45.892;-123.962;2022-07-29T04:23:52;1.90;;;1.10;;
51066;SDS011;37112;45.892;-123.962;2022-07-29T04:26:06;2.20;;;1.40;;
51066;SDS011;37112;45.892;-123.962;2022-07-29T04:28:19;1.60;;;1.30;;
51066;SDS011;37112;45.892;-123.962;2022-07-29T04:30:32;1.90;;;1.40;;
51066;SDS011;37112;45.892;-123.962;2022-07-29T04:32:47;1.00;;;0.90;;
51066;SDS011;37112;45.892;-123.962;2022-07-29T04:35:00;1.20;;;0.90;;
51066;SDS011;37112;45.892;-123.962;2022-07-29T04:37:14;1.40;;;1.10;;
51066;SDS011;37112;45.892;-123.962;2022-07-29T04:39:27;3.70;;;1.50;;
51066;SDS011;37112;45.892;-123.962;2022-07-29T04:41:40;1.70;;;1.20;;
51066;SDS011;37112;45.892;-123.962;2022-07-29T04:43:53;2.00;;;1.40;;
51066;SDS011;37112;45.892;-123.962;2022-07-29T04:46:08;1.70;;;1.20;;
51066;SDS011;37112;45.892;-123.962;2022-07-29T04:48:21;1.60;;;1.20;;
51066;SDS011;37112;45.892;-123.962;2022-07-29T04:50:37;1.40;;;1.10;;
51066;SDS011;37112;45.892;-123.962;2022-07-29T04:52:51;1.40;;;1.10;;
51066;SDS011;37112;45.892;-123.962;2022-07-29T04:55:05;1.50;;;1.20;;
51066;SDS011;37112;45.892;-123.962;2022-07-29T04:57:19;2.00;;;1.40;;
51066;SDS011;37112;45.892;-123.962;2022-07-29T04:59:32;2.60;;;1.20;;
51066;SDS011;37112;45.892;-123.962;2022-07-29T05:01:45;2.00;;;1.50;;
51066;SDS011;37112;45.892;-123.962;2022-07-29T05:03:58;1.80;;;1.00;;
51066;SDS011;37112;45.892;-123.962;2022-07-29T05:06:11;1.50;;;1.10;;
51066;SDS011;37112;45.892;-123.962;2022-07-29T05:08:24;2.20;;;1.30;;
51066;SDS011;37112;45.892;-123.962;2022-07-29T05:10:38;1.80;;;1.20;;
51066;SDS011;37112;45.892;-123.962;2022-07-29T05:12:51;1.20;;;1.00;;
51066;SDS011;37112;45.892;-123.962;2022-07-29T05:15:04;0.90;;;0.80;;
51066;SDS011;37112;45.892;-123.962;2022-07-29T05:17:18;1.20;;;0.90;;
51066;SDS011;37112;45.892;-123.962;2022-07-29T05:19:31;1.10;;;0.80;;
51066;SDS011;37112;45.892;-123.962;2022-07-29T05:21:46;2.20;;;0.90;;
51066;SDS011;37112;45.892;-123.962;2022-07-29T05:23:59;1.50;;;1.00;;
51066;SDS011;37112;45.892;-123.962;2022-07-29T05:26:12;1.10;;;0.90;;
51066;SDS011;37112;45.892;-123.962;2022-07-29T05:28:25;1.60;;;0.90;;
51066;SDS011;37112;45.892;-123.962;2022-07-29T05:30:38;0.80;;;0.70;;
51066;SDS011;37112;45.892;-123.962;2022-07-29T05:32:52;0.90;;;0.90;;
51066;SDS011;37112;45.892;-123.962;2022-07-29T05:35:05;1.00;;;0.90;;
51066;SDS011;37112;45.892;-123.962;2022-07-29T05:37:20;1.20;;;0.90;;
51066;SDS011;37112;45.892;-123.962;2022-07-29T05:39:33;2.90;;;1.00;;
51066;SDS011;37112;45.892;-123.962;2022-07-29T05:41:54;1.90;;;0.70;;
51066;SDS011;37112;45.892;-123.962;2022-07-29T05:44:08;1.40;;;0.80;;
51066;SDS011;37112;45.892;-123.962;2022-07-29T05:46:21;1.30;;;1.20;;
51066;SDS011;37112;45.892;-123.962;2022-07-29T05:48:34;3.00;;;2.50;;
51066;SDS011;37112;45.892;-123.962;2022-07-29T05:50:48;3.10;;;2.30;;
51066;SDS011;37112;45.892;-123.962;2022-07-29T05:53:02;2.70;;;1.10;;
51066;SDS011;37112;45.892;-123.962;2022-07-29T05:55:25;1.20;;;0.90;;
51066;SDS011;37112;45.892;-123.962;2022-07-29T05:57:38;1.90;;;0.80;;
51066;SDS011;37112;45.892;-123.962;2022-07-29T05:59:53;1.30;;;1.00;;
51066;SDS011;37112;45.892;-123.962;2022-07-29T06:02:06;3.50;;;2.80;;
51066;SDS011;37112;45.892;-123.962;2022-07-29T06:04:19;3.40;;;2.30;;
51066;SDS011;37112;45.892;-123.962;2022-07-29T06:06:32;2.50;;;2.10;;
51066;SDS011;37112;45.892;-123.962;2022-07-29T06:08:45;3.60;;;2.40;;
51066;SDS011;37112;45.892;-123.962;2022-07-29T06:10:58;5.50;;;3.30;;
51066;SDS011;37112;45.892;-123.962;2022-07-29T06:13:12;2.90;;;2.70;;
51066;SDS011;37112;45.892;-123.962;2022-07-29T06:15:25;2.90;;;2.10;;
51066;SDS011;37112;45.892;-123.962;2022-07-29T06:17:38;4.10;;;2.10;;
51066;SDS011;37112;45.892;-123.962;2022-07-29T06:20:07;1.90;;;0.90;;
51066;SDS011;37112;45.892;-123.962;2022-07-29T06:22:21;1.10;;;0.90;;
51066;SDS011;37112;45.892;-123.962;2022-07-29T06:24:35;1.20;;;0.90;;
51066;SDS011;37112;45.892;-123.962;2022-07-29T06:26:51;0.90;;;0.80;;
51066;SDS011;37112;45.892;-123.962;2022-07-29T06:29:04;2.70;;;2.10;;
51066;SDS011;37112;45.892;-123.962;2022-07-29T06:31:18;2.40;;;2.00;;
51066;SDS011;37112;45.892;-123.962;2022-07-29T06:33:31;3.60;;;2.80;;
51066;SDS011;37112;45.892;-123.962;2022-07-29T06:35:44;3.30;;;2.30;;
51066;SDS011;37112;45.892;-123.962;2022-07-29T06:38:00;4.10;;;1.80;;
51066;SDS011;37112;45.892;-123.962;2022-07-29T06:40:34;10.00;;;3.50;;
51066;SDS011;37112;45.892;-123.962;2022-07-29T06:43:06;8.80;;;1.80;;
51066;SDS011;37112;45.892;-123.962;2022-07-29T06:45:19;11.50;;;1.80;;
51066;SDS011;37112;45.892;-123.962;2022-07-29T06:47:33;15.40;;;4.30;;
51066;SDS011;37112;45.892;-123.962;2022-07-29T06:49:47;4.60;;;1.70;;
51066;SDS011;37112;45.892;-123.962;2022-07-29T06:52:00;8.40;;;2.00;;
51066;SDS011;37112;45.892;-123.962;2022-07-29T06:54:13;7.60;;;2.70;;
51066;SDS011;37112;45.892;-123.962;2022-07-29T06:56:27;8.30;;;3.80;;
51066;SDS011;37112;45.892;-123.962;2022-07-29T06:58:45;6.10;;;3.70;;
51066;SDS011;37112;45.892;-123.962;2022-07-29T07:01:00;4.70;;;3.50;;
51066;SDS011;37112;45.892;-123.962;2022-07-29T07:03:14;3.90;;;2.90;;
51066;SDS011;37112;45.892;-123.962;2022-07-29T07:05:28;9.90;;;2.30;;
51066;SDS011;37112;45.892;-123.962;2022-07-29T07:07:41;13.10;;;5.50;;
51066;SDS011;37112;45.892;-123.962;2022-07-29T07:09:54;11.20;;;4.20;;
51066;SDS011;37112;45.892;-123.962;2022-07-29T07:12:08;9.00;;;3.00;;
51066;SDS011;37112;45.892;-123.962;2022-07-29T07:14:21;8.70;;;3.80;;
51066;SDS011;37112;45.892;-123.962;2022-07-29T07:16:35;5.00;;;3.00;;
51066;SDS011;37112;45.892;-123.962;2022-07-29T07:18:48;3.00;;;2.30;;
51066;SDS011;37112;45.892;-123.962;2022-07-29T07:21:01;4.80;;;2.80;;
51066;SDS011;37112;45.892;-123.962;2022-07-29T07:23:14;3.10;;;1.40;;
51066;SDS011;37112;45.892;-123.962;2022-07-29T07:25:27;1.80;;;1.20;;
51066;SDS011;37112;45.892;-123.962;2022-07-29T07:27:41;2.40;;;1.10;;
51066;SDS011;37112;45.892;-123.962;2022-07-29T07:29:54;2.40;;;1.10;;
51066;SDS011;37112;45.892;-123.962;2022-07-29T07:32:07;2.50;;;1.00;;
51066;SDS011;37112;45.892;-123.962;2022-07-29T07:34:20;27.90;;;4.80;;
51066;SDS011;37112;45.892;-123.962;2022-07-29T07:36:35;13.90;;;2.80;;
51066;SDS011;37112;45.892;-123.962;2022-07-29T07:38:48;4.90;;;1.40;;
51066;SDS011;37112;45.892;-123.962;2022-07-29T07:41:01;11.00;;;2.00;;
51066;SDS011;37112;45.892;-123.962;2022-07-29T07:43:14;2.30;;;0.90;;
51066;SDS011;37112;45.892;-123.962;2022-07-29T07:45:27;3.20;;;0.90;;
51066;SDS011;37112;45.892;-123.962;2022-07-29T07:47:42;1.30;;;1.00;;
51066;SDS011;37112;45.892;-123.962;2022-07-29T07:49:55;3.00;;;0.80;;
51066;SDS011;37112;45.892;-123.962;2022-07-29T07:52:08;3.70;;;0.90;;
51066;SDS011;37112;45.892;-123.962;2022-07-29T07:54:21;2.60;;;1.00;;
51066;SDS011;37112;45.892;-123.962;2022-07-29T07:56:33;2.70;;;1.50;;
51066;SDS011;37112;45.892;-123.962;2022-07-29T07:58:46;1.50;;;1.00;;
51066;SDS011;37112;45.892;-123.962;2022-07-29T08:00:59;2.50;;;1.10;;
51066;SDS011;37112;45.892;-123.962;2022-07-29T08:03:13;4.00;;;0.90;;
51066;SDS011;37112;45.892;-123.962;2022-07-29T08:05:26;2.70;;;0.90;;
51066;SDS011;37112;45.892;-123.962;2022-07-29T08:07:40;1.40;;;0.80;;
51066;SDS011;37112;45.892;-123.962;2022-07-29T08:09:53;4.60;;;0.80;;
51066;SDS011;37112;45.892;-123.962;2022-07-29T08:12:06;3.10;;;1.20;;
51066;SDS011;37112;45.892;-123.962;2022-07-29T08:14:19;10.30;;;2.80;;
51066;SDS011;37112;45.892;-123.962;2022-07-29T08:16:33;6.00;;;1.50;;
51066;SDS011;37112;45.892;-123.962;2022-07-29T08:18:46;9.90;;;1.70;;
51066;SDS011;37112;45.892;-123.962;2022-07-29T08:20:59;7.10;;;2.00;;
51066;SDS011;37112;45.892;-123.962;2022-07-29T08:23:12;9.10;;;1.90;;
51066;SDS011;37112;45.892;-123.962;2022-07-29T08:25:26;11.90;;;1.70;;
51066;SDS011;37112;45.892;-123.962;2022-07-29T08:27:44;8.10;;;2.20;;
51066;SDS011;37112;45.892;-123.962;2022-07-29T08:29:57;8.50;;;1.90;;
51066;SDS011;37112;45.892;-123.962;2022-07-29T08:32:10;10.70;;;2.10;;
51066;SDS011;37112;45.892;-123.962;2022-07-29T08:36:53;5.90;;;2.30;;
51066;SDS011;37112;45.892;-123.962;2022-07-29T08:39:06;7.80;;;2.60;;
51066;SDS011;37112;45.892;-123.962;2022-07-29T08:41:19;9.50;;;2.30;;
51066;SDS011;37112;45.892;-123.962;2022-07-29T08:43:33;5.80;;;2.10;;
51066;SDS011;37112;45.892;-123.962;2022-07-29T08:45:46;10.60;;;3.00;;
51066;SDS011;37112;45.892;-123.962;2022-07-29T08:48:00;8.70;;;2.20;;
51066;SDS011;37112;45.892;-123.962;2022-07-29T08:50:15;10.60;;;2.40;;
51066;SDS011;37112;45.892;-123.962;2022-07-29T08:52:28;6.50;;;1.90;;
51066;SDS011;37112;45.892;-123.962;2022-07-29T08:54:45;6.50;;;2.30;;
51066;SDS011;37112;45.892;-123.962;2022-07-29T08:56:59;8.50;;;2.00;;
51066;SDS011;37112;45.892;-123.962;2022-07-29T08:59:14;5.60;;;1.90;;
51066;SDS011;37112;45.892;-123.962;2022-07-29T09:01:29;6.40;;;2.20;;
51066;SDS011;37112;45.892;-123.962;2022-07-29T09:03:50;6.20;;;2.20;;
51066;SDS011;37112;45.892;-123.962;2022-07-29T09:06:08;5.70;;;1.90;;
51066;SDS011;37112;45.892;-123.962;2022-07-29T09:08:27;6.40;;;1.90;;
51066;SDS011;37112;45.892;-123.962;2022-07-29T09:10:40;5.70;;;1.90;;
51066;SDS011;37112;45.892;-123.962;2022-07-29T09:12:54;4.70;;;1.70;;
51066;SDS011;37112;45.892;-123.962;2022-07-29T09:15:08;8.00;;;2.10;;
51066;SDS011;37112;45.892;-123.962;2022-07-29T09:17:21;8.00;;;1.70;;
51066;SDS011;37112;45.892;-123.962;2022-07-29T09:19:52;5.90;;;2.20;;
51066;SDS011;37112;45.892;-123.962;2022-07-29T09:22:30;2.90;;;1.40;;
51066;SDS011;37112;45.892;-123.962;2022-07-29T09:24:47;4.40;;;1.40;;
51066;SDS011;37112;45.892;-123.962;2022-07-29T09:27:02;2.80;;;1.20;;
51066;SDS011;37112;45.892;-123.962;2022-07-29T09:29:17;3.10;;;1.40;;
51066;SDS011;37112;45.892;-123.962;2022-07-29T09:31:34;2.30;;;1.20;;
51066;SDS011;37112;45.892;-123.962;2022-07-29T09:33:49;3.20;;;1.10;;
51066;SDS011;37112;45.892;-123.962;2022-07-29T09:36:05;2.20;;;1.20;;
51066;SDS011;37112;45.892;-123.962;2022-07-29T09:38:19;2.20;;;1.10;;
51066;SDS011;37112;45.892;-123.962;2022-07-29T09:40:32;3.10;;;1.00;;
51066;SDS011;37112;45.892;-123.962;2022-07-29T09:42:45;4.30;;;1.20;;
51066;SDS011;37112;45.892;-123.962;2022-07-29T09:44:58;2.60;;;1.20;;
51066;SDS011;37112;45.892;-123.962;2022-07-29T09:47:12;3.50;;;1.20;;
51066;SDS011;37112;45.892;-123.962;2022-07-29T09:49:25;1.90;;;0.90;;
51066;SDS011;37112;45.892;-123.962;2022-07-29T09:51:38;3.30;;;1.10;;
51066;SDS011;37112;45.892;-123.962;2022-07-29T09:53:51;2.50;;;1.10;;
51066;SDS011;37112;45.892;-123.962;2022-07-29T09:56:05;3.90;;;1.20;;
51066;SDS011;37112;45.892;-123.962;2022-07-29T09:58:18;4.40;;;1.00;;
51066;SDS011;37112;45.892;-123.962;2022-07-29T10:00:32;2.70;;;1.20;;
51066;SDS011;37112;45.892;-123.962;2022-07-29T10:02:55;3.00;;;1.00;;
51066;SDS011;37112;45.892;-123.962;2022-07-29T10:05:19;1.90;;;1.00;;
51066;SDS011;37112;45.892;-123.962;2022-07-29T10:07:46;2.60;;;0.80;;
51066;SDS011;37112;45.892;-123.962;2022-07-29T10:10:03;2.50;;;1.00;;
51066;SDS011;37112;45.892;-123.962;2022-07-29T10:12:17;2.70;;;1.00;;
51066;SDS011;37112;45.892;-123.962;2022-07-29T10:14:30;2.30;;;1.10;;
51066;SDS011;37112;45.892;-123.962;2022-07-29T10:16:44;2.50;;;1.00;;
51066;SDS011;37112;45.892;-123.962;2022-07-29T10:18:57;3.10;;;1.20;;
51066;SDS011;37112;45.892;-123.962;2022-07-29T10:21:10;1.90;;;1.20;;
51066;SDS011;37112;45.892;-123.962;2022-07-29T10:23:42;3.60;;;1.20;;
51066;SDS011;37112;45.892;-123.962;2022-07-29T10:25:55;2.80;;;1.30;;
51066;SDS011;37112;45.892;-123.962;2022-07-29T10:28:08;2.70;;;1.50;;
51066;SDS011;37112;45.892;-123.962;2022-07-29T10:30:23;3.90;;;1.20;;
51066;SDS011;37112;45.892;-123.962;2022-07-29T10:32:39;1.30;;;1.00;;
51066;SDS011;37112;45.892;-123.962;2022-07-29T10:35:08;3.00;;;1.40;;
51066;SDS011;37112;45.892;-123.962;2022-07-29T10:37:30;2.90;;;1.30;;
51066;SDS011;37112;45.892;-123.962;2022-07-29T10:39:55;4.30;;;1.40;;
51066;SDS011;37112;45.892;-123.962;2022-07-29T10:42:35;1.30;;;0.90;;
51066;SDS011;37112;45.892;-123.962;2022-07-29T10:44:53;1.50;;;0.90;;
51066;SDS011;37112;45.892;-123.962;2022-07-29T10:47:07;2.00;;;1.10;;
51066;SDS011;37112;45.892;-123.962;2022-07-29T10:49:29;1.70;;;0.80;;
51066;SDS011;37112;45.892;-123.962;2022-07-29T10:51:56;2.20;;;0.90;;
51066;SDS011;37112;45.892;-123.962;2022-07-29T10:54:11;1.10;;;0.90;;
51066;SDS011;37112;45.892;-123.962;2022-07-29T10:56:26;1.50;;;0.80;;
51066;SDS011;37112;45.892;-123.962;2022-07-29T10:58:41;0.80;;;0.60;;
51066;SDS011;37112;45.892;-123.962;2022-07-29T11:00:58;0.40;;;0.40;;
51066;SDS011;37112;45.892;-123.962;2022-07-29T11:03:46;0.30;;;0.30;;
51066;SDS011;37112;45.892;-123.962;2022-07-29T11:06:02;0.30;;;0.30;;
51066;SDS011;37112;45.892;-123.962;2022-07-29T11:08:21;0.40;;;0.30;;
51066;SDS011;37112;45.892;-123.962;2022-07-29T11:10:35;10.90;;;1.00;;
51066;SDS011;37112;45.892;-123.962;2022-07-29T11:12:50;4.30;;;1.00;;
51066;SDS011;37112;45.892;-123.962;2022-07-29T11:15:03;0.20;;;0.20;;
51066;SDS011;37112;45.892;-123.962;2022-07-29T11:17:24;0.30;;;0.30;;
51066;SDS011;37112;45.892;-123.962;2022-07-29T11:27:47;2.20;;;0.60;;
51066;SDS011;37112;45.892;-123.962;2022-07-29T11:30:02;0.40;;;0.40;;
51066;SDS011;37112;45.892;-123.962;2022-07-29T11:32:20;0.80;;;0.50;;
51066;SDS011;37112;45.892;-123.962;2022-07-29T11:34:35;0.30;;;0.30;;
51066;SDS011;37112;45.892;-123.962;2022-07-29T11:39:35;0.80;;;0.30;;
51066;SDS011;37112;45.892;-123.962;2022-07-29T11:41:51;0.30;;;0.30;;
51066;SDS011;37112;45.892;-123.962;2022-07-29T11:47:30;0.50;;;0.30;;
51066;SDS011;37112;45.892;-123.962;2022-07-29T11:49:46;1.20;;;0.30;;
51066;SDS011;37112;45.892;-123.962;2022-07-29T11:52:05;0.30;;;0.30;;
51066;SDS011;37112;45.892;-123.962;2022-07-29T11:54:21;0.30;;;0.30;;
51066;SDS011;37112;45.892;-123.962;2022-07-29T11:57:00;0.30;;;0.30;;
51066;SDS011;37112;45.892;-123.962;2022-07-29T11:59:17;0.50;;;0.30;;
51066;SDS011;37112;45.892;-123.962;2022-07-29T12:04:26;0.40;;;0.30;;
51066;SDS011;37112;45.892;-123.962;2022-07-29T12:06:39;0.60;;;0.50;;
51066;SDS011;37112;45.892;-123.962;2022-07-29T12:08:54;0.30;;;0.30;;
51066;SDS011;37112;45.892;-123.962;2022-07-29T12:11:16;0.60;;;0.30;;
51066;SDS011;37112;45.892;-123.962;2022-07-29T12:13:30;0.60;;;0.30;;
51066;SDS011;37112;45.892;-123.962;2022-07-29T12:15:53;0.30;;;0.30;;
51066;SDS011;37112;45.892;-123.962;2022-07-29T12:18:12;0.50;;;0.30;;
51066;SDS011;37112;45.892;-123.962;2022-07-29T12:20:30;0.40;;;0.40;;
51066;SDS011;37112;45.892;-123.962;2022-07-29T12:22:43;0.30;;;0.30;;
51066;SDS011;37112;45.892;-123.962;2022-07-29T12:25:00;0.40;;;0.40;;
51066;SDS011;37112;45.892;-123.962;2022-07-29T12:27:35;0.30;;;0.30;;
51066;SDS011;37112;45.892;-123.962;2022-07-29T12:29:56;0.30;;;0.30;;
51066;SDS011;37112;45.892;-123.962;2022-07-29T12:32:11;1.40;;;0.40;;
51066;SDS011;37112;45.892;-123.962;2022-07-29T12:34:26;0.30;;;0.30;;
51066;SDS011;37112;45.892;-123.962;2022-07-29T12:36:40;0.30;;;0.30;;
51066;SDS011;37112;45.892;-123.962;2022-07-29T12:38:53;1.60;;;0.40;;
51066;SDS011;37112;45.892;-123.962;2022-07-29T12:41:06;0.30;;;0.30;;
51066;SDS011;37112;45.892;-123.962;2022-07-29T12:43:20;0.70;;;0.40;;
51066;SDS011;37112;45.892;-123.962;2022-07-29T12:45:34;0.30;;;0.30;;
51066;SDS011;37112;45.892;-123.962;2022-07-29T12:47:53;0.40;;;0.30;;
51066;SDS011;37112;45.892;-123.962;2022-07-29T12:50:11;0.30;;;0.30;;
51066;SDS011;37112;45.892;-123.962;2022-07-29T12:52:31;1.60;;;0.40;;
51066;SDS011;37112;45.892;-123.962;2022-07-29T12:54:48;0.30;;;0.30;;
51066;SDS011;37112;45.892;-123.962;2022-07-29T12:57:01;0.40;;;0.40;;
51066;SDS011;37112;45.892;-123.962;2022-07-29T12:59:25;1.00;;;0.30;;
51066;SDS011;37112;45.892;-123.962;2022-07-29T13:01:39;0.40;;;0.40;;
51066;SDS011;37112;45.892;-123.962;2022-07-29T13:03:52;0.30;;;0.30;;
51066;SDS011;37112;45.892;-123.962;2022-07-29T13:06:08;0.80;;;0.30;;
51066;SDS011;37112;45.892;-123.962;2022-07-29T13:08:41;1.60;;;0.40;;
51066;SDS011;37112;45.892;-123.962;2022-07-29T13:13:52;1.10;;;0.50;;
51066;SDS011;37112;45.892;-123.962;2022-07-29T13:16:12;0.50;;;0.50;;
51066;SDS011;37112;45.892;-123.962;2022-07-29T13:18:30;5.00;;;0.50;;
51066;SDS011;37112;45.892;-123.962;2022-07-29T13:20:44;0.60;;;0.40;;
51066;SDS011;37112;45.892;-123.962;2022-07-29T13:22:58;1.50;;;0.50;;
51066;SDS011;37112;45.892;-123.962;2022-07-29T13:25:11;0.60;;;0.40;;
51066;SDS011;37112;45.892;-123.962;2022-07-29T13:27:24;0.30;;;0.30;;